createdAt,value
2023-05-19T00:00:22.491Z,11.99
2023-05-19T00:01:22.341Z,12.01
2023-05-19T00:02:22.483Z,11.99
2023-05-19T00:03:22.561Z,11.98
2023-05-19T00:04:22.522Z,11.98
2023-05-19T00:05:22.384Z,11.96
2023-05-19T00:06:22.403Z,11.94
2023-05-19T00:07:22.247Z,11.95
2023-05-19T00:08:22.307Z,11.94
2023-05-19T00:09:22.222Z,11.91
2023-05-19T00:10:22.351Z,11.90
2023-05-19T00:11:22.261Z,11.90
2023-05-19T00:12:22.334Z,11.88
2023-05-19T00:13:22.306Z,11.88
2023-05-19T00:14:22.330Z,11.83
2023-05-19T00:15:22.155Z,11.85
2023-05-19T00:16:22.312Z,11.86
2023-05-19T00:17:22.122Z,11.83
2023-05-19T00:18:22.151Z,11.80
2023-05-19T00:19:22.188Z,11.80
2023-05-19T00:20:22.181Z,11.78
2023-05-19T00:21:22.076Z,11.79
2023-05-19T00:22:23.568Z,11.78
2023-05-19T00:23:22.033Z,11.78
2023-05-19T00:24:22.102Z,11.78
2023-05-19T00:25:22.009Z,11.78
2023-05-19T00:26:22.968Z,11.78
2023-05-19T00:27:22.236Z,11.79
2023-05-19T00:28:21.965Z,11.80
2023-05-19T00:29:22.149Z,11.78
2023-05-19T00:30:21.941Z,11.80
2023-05-19T00:31:22.030Z,11.76
2023-05-19T00:32:21.974Z,11.75
2023-05-19T00:33:21.981Z,11.75
2023-05-19T00:34:21.969Z,11.73
2023-05-19T00:35:21.976Z,11.75
2023-05-19T00:36:21.843Z,11.72
2023-05-19T00:37:22.012Z,11.72
2023-05-19T00:38:21.855Z,11.73
2023-05-19T00:39:22.017Z,11.69
2023-05-19T00:40:21.790Z,11.70
2023-05-19T00:41:21.964Z,11.69
2023-05-19T00:42:21.763Z,11.70
2023-05-19T00:43:22.008Z,11.72
2023-05-19T00:44:21.775Z,11.72
2023-05-19T00:45:21.969Z,11.73
2023-05-19T00:46:21.836Z,11.72
2023-05-19T00:47:21.945Z,11.72
2023-05-19T00:48:21.699Z,11.73
2023-05-19T00:49:21.827Z,11.76
2023-05-19T00:50:21.684Z,11.75
2023-05-19T00:51:21.794Z,11.73
2023-05-19T00:52:21.650Z,11.73
2023-05-19T00:53:21.808Z,11.75
2023-05-19T00:54:21.634Z,11.75
2023-05-19T00:55:21.864Z,11.73
2023-05-19T00:56:21.594Z,11.73
2023-05-19T00:57:21.864Z,11.75
2023-05-19T00:58:21.852Z,11.72
2023-05-19T00:59:21.576Z,11.72
2023-05-19T01:00:21.799Z,11.72
2023-05-19T01:01:21.817Z,11.69
2023-05-19T01:02:21.864Z,11.65
2023-05-19T01:03:21.787Z,11.65
2023-05-19T01:04:21.491Z,11.65
2023-05-19T01:05:21.708Z,11.64
2023-05-19T01:06:21.457Z,11.65
2023-05-19T01:07:21.655Z,11.62
2023-05-19T01:08:21.434Z,11.64
2023-05-19T01:09:21.604Z,11.65
2023-05-19T01:10:21.402Z,11.67
2023-05-19T01:11:21.645Z,11.65
2023-05-19T01:12:21.391Z,11.65
2023-05-19T01:13:21.715Z,11.62
2023-05-19T01:14:21.377Z,11.61
2023-05-19T01:15:21.589Z,11.60
2023-05-19T01:16:21.390Z,11.58
2023-05-19T01:17:21.573Z,11.58
2023-05-19T01:18:21.340Z,11.60
2023-05-19T01:19:21.540Z,11.58
2023-05-19T01:20:21.270Z,11.60
2023-05-19T01:21:21.392Z,11.58
2023-05-19T01:22:21.263Z,11.61
2023-05-19T01:23:21.599Z,11.60
2023-05-19T01:24:21.342Z,11.60
2023-05-19T01:25:21.272Z,11.61
2023-05-19T01:26:21.320Z,11.60
2023-05-19T01:27:21.204Z,11.60
2023-05-19T01:28:21.329Z,11.58
2023-05-19T01:29:21.206Z,11.57
2023-05-19T01:30:21.375Z,11.58
2023-05-19T01:31:21.172Z,11.58
2023-05-19T01:32:21.176Z,11.57
2023-05-19T01:33:21.119Z,11.57
2023-05-19T01:34:21.265Z,11.55
2023-05-19T01:35:21.131Z,11.54
2023-05-19T01:36:21.193Z,11.54
2023-05-19T01:37:21.080Z,11.52
2023-05-19T01:38:21.124Z,11.51
2023-05-19T01:39:21.198Z,11.51
2023-05-19T01:40:21.018Z,11.49
2023-05-19T01:41:21.265Z,11.49
2023-05-19T01:42:20.998Z,11.49
2023-05-19T01:43:21.024Z,11.52
2023-05-19T01:44:20.998Z,11.52
2023-05-19T01:45:21.035Z,11.52
2023-05-19T01:46:20.987Z,11.51
2023-05-19T01:47:20.979Z,11.49
2023-05-19T01:48:20.950Z,11.51
2023-05-19T01:49:20.963Z,11.49
2023-05-19T01:50:20.921Z,11.49
2023-05-19T01:51:21.137Z,11.51
2023-05-19T01:52:20.887Z,11.47
2023-05-19T01:53:20.934Z,11.52
2023-05-19T01:54:20.850Z,11.49
2023-05-19T01:55:20.910Z,11.49
2023-05-19T01:56:20.847Z,11.51
2023-05-19T01:57:20.961Z,11.49
2023-05-19T01:58:20.846Z,11.46
2023-05-19T01:59:20.930Z,11.47
2023-05-19T02:00:21.461Z,11.47
2023-05-19T02:01:21.006Z,11.47
2023-05-19T02:02:20.804Z,11.46
2023-05-19T02:03:20.774Z,11.47
2023-05-19T02:04:20.830Z,11.43
2023-05-19T02:05:20.779Z,11.42
2023-05-19T02:06:20.743Z,11.43
2023-05-19T02:07:20.799Z,11.39
2023-05-19T02:08:20.721Z,11.42
2023-05-19T02:09:20.834Z,11.40
2023-05-19T02:10:20.816Z,11.40
2023-05-19T02:11:20.822Z,11.40
2023-05-19T02:12:20.916Z,11.39
2023-05-19T02:13:20.596Z,11.37
2023-05-19T02:14:20.700Z,11.36
2023-05-19T02:15:20.572Z,11.33
2023-05-19T02:16:20.762Z,11.33
2023-05-19T02:17:20.585Z,11.29
2023-05-19T02:18:20.712Z,11.29
2023-05-19T02:19:20.663Z,11.32
2023-05-19T02:20:20.621Z,11.32
2023-05-19T02:21:20.482Z,11.32
2023-05-19T02:22:20.586Z,11.32
2023-05-19T02:23:20.454Z,11.29
2023-05-19T02:24:20.557Z,11.33
2023-05-19T02:25:20.432Z,11.35
2023-05-19T02:26:20.521Z,11.32
2023-05-19T02:27:20.434Z,11.33
2023-05-19T02:28:20.544Z,11.33
2023-05-19T02:29:20.411Z,11.35
2023-05-19T02:30:20.597Z,11.36
2023-05-19T02:31:20.432Z,11.36
2023-05-19T02:32:20.524Z,11.39
2023-05-19T02:33:20.317Z,11.39
2023-05-19T02:34:20.457Z,11.39
2023-05-19T02:35:20.327Z,11.37
2023-05-19T02:36:20.479Z,11.37
2023-05-19T02:37:20.347Z,11.39
2023-05-19T02:38:20.495Z,11.39
2023-05-19T02:39:20.252Z,11.40
2023-05-19T02:40:20.305Z,11.36
2023-05-19T02:41:20.258Z,11.36
2023-05-19T02:42:20.326Z,11.36
2023-05-19T02:43:20.202Z,11.36
2023-05-19T02:44:20.363Z,11.33
2023-05-19T02:45:20.195Z,11.36
2023-05-19T02:46:20.394Z,11.36
2023-05-19T02:47:20.188Z,11.36
2023-05-19T02:48:20.362Z,11.33
2023-05-19T02:49:20.137Z,11.35
2023-05-19T02:50:20.181Z,11.37
2023-05-19T02:51:20.127Z,11.35
2023-05-19T02:52:20.243Z,11.33
2023-05-19T02:53:20.072Z,11.33
2023-05-19T02:54:20.162Z,11.29
2023-05-19T02:55:20.035Z,11.28
2023-05-19T02:56:20.218Z,11.25
2023-05-19T02:57:20.068Z,11.25
2023-05-19T02:58:20.227Z,11.22
2023-05-19T02:59:20.018Z,11.19
2023-05-19T03:00:20.047Z,11.18
2023-05-19T03:01:19.988Z,11.18
2023-05-19T03:02:20.117Z,11.18
2023-05-19T03:03:20.087Z,11.18
2023-05-19T03:04:20.168Z,11.19
2023-05-19T03:05:19.927Z,11.19
2023-05-19T03:06:19.967Z,11.18
2023-05-19T03:07:20.619Z,11.22
2023-05-19T03:08:19.885Z,11.19
2023-05-19T03:09:20.024Z,11.18
2023-05-19T03:10:19.867Z,11.17
2023-05-19T03:11:19.987Z,11.19
2023-05-19T03:12:19.884Z,11.19
2023-05-19T03:13:19.966Z,11.19
2023-05-19T03:14:19.826Z,11.15
2023-05-19T03:15:19.891Z,11.17
2023-05-19T03:16:19.844Z,11.14
2023-05-19T03:17:19.880Z,11.10
2023-05-19T03:18:19.798Z,11.11
2023-05-19T03:19:19.904Z,11.10
2023-05-19T03:20:19.782Z,11.14
2023-05-19T03:21:19.779Z,11.10
2023-05-19T03:22:19.782Z,11.10
2023-05-19T03:23:19.686Z,11.06
2023-05-19T03:24:19.797Z,11.04
2023-05-19T03:25:19.661Z,11.04
2023-05-19T03:26:19.863Z,11.02
2023-05-19T03:27:19.634Z,11.03
2023-05-19T03:28:19.833Z,11.02
2023-05-19T03:29:19.602Z,11.02
2023-05-19T03:30:19.730Z,11.02
2023-05-19T03:31:19.619Z,11.03
2023-05-19T03:32:19.793Z,11.00
2023-05-19T03:33:19.690Z,10.97
2023-05-19T03:34:20.698Z,11.02
2023-05-19T03:35:19.544Z,11.00
2023-05-19T03:36:19.633Z,10.97
2023-05-19T03:37:19.528Z,10.97
2023-05-19T03:38:19.603Z,10.96
2023-05-19T03:39:19.471Z,10.92
2023-05-19T03:40:19.716Z,10.92
2023-05-19T03:41:19.464Z,10.92
2023-05-19T03:42:19.560Z,10.89
2023-05-19T03:43:19.413Z,10.89
2023-05-19T03:44:19.532Z,10.88
2023-05-19T03:45:19.398Z,10.88
2023-05-19T03:46:19.850Z,10.86
2023-05-19T03:47:19.373Z,10.86
2023-05-19T03:48:21.156Z,10.89
2023-05-19T03:49:19.349Z,10.86
2023-05-19T03:50:19.479Z,10.85
2023-05-19T03:51:19.322Z,10.85
2023-05-19T03:52:19.498Z,10.84
2023-05-19T03:53:19.391Z,10.81
2023-05-19T03:54:19.307Z,10.82
2023-05-19T03:55:19.438Z,10.84
2023-05-19T03:56:19.271Z,10.79
2023-05-19T03:57:19.329Z,10.78
2023-05-19T03:58:19.290Z,10.79
2023-05-19T03:59:19.305Z,10.78
2023-05-19T04:00:19.228Z,10.73
2023-05-19T04:01:19.328Z,10.73
2023-05-19T04:02:19.486Z,10.73
2023-05-19T04:03:19.513Z,10.73
2023-05-19T04:04:19.233Z,10.71
2023-05-19T04:05:19.263Z,10.70
2023-05-19T04:06:19.210Z,10.73
2023-05-19T04:07:19.176Z,10.73
2023-05-19T04:08:19.123Z,10.73
2023-05-19T04:09:19.330Z,10.76
2023-05-19T04:10:19.108Z,10.73
2023-05-19T04:11:19.191Z,10.76
2023-05-19T04:12:19.073Z,10.78
2023-05-19T04:13:19.099Z,10.78
2023-05-19T04:14:19.083Z,10.79
2023-05-19T04:15:19.126Z,10.81
2023-05-19T04:16:19.072Z,10.81
2023-05-19T04:17:19.124Z,10.76
2023-05-19T04:18:18.999Z,10.81
2023-05-19T04:19:19.188Z,10.79
2023-05-19T04:20:19.020Z,10.79
2023-05-19T04:21:19.054Z,10.81
2023-05-19T04:22:18.960Z,10.76
2023-05-19T04:23:18.976Z,10.81
2023-05-19T04:24:19.101Z,10.76
2023-05-19T04:25:18.985Z,10.79
2023-05-19T04:26:19.015Z,10.81
2023-05-19T04:27:18.863Z,10.81
2023-05-19T04:28:19.143Z,10.78
2023-05-19T04:29:18.850Z,10.81
2023-05-19T04:30:18.985Z,10.78
2023-05-19T04:31:18.912Z,10.78
2023-05-19T04:32:18.967Z,10.78
2023-05-19T04:33:18.811Z,10.78
2023-05-19T04:34:18.974Z,10.78
2023-05-19T04:35:18.748Z,10.78
2023-05-19T04:36:18.872Z,10.78
2023-05-19T04:37:18.773Z,10.79
2023-05-19T04:38:18.989Z,10.84
2023-05-19T04:39:18.735Z,10.81
2023-05-19T04:40:18.850Z,10.85
2023-05-19T04:41:18.721Z,10.82
2023-05-19T04:42:18.980Z,10.86
2023-05-19T04:43:18.664Z,10.86
2023-05-19T04:44:18.972Z,10.89
2023-05-19T04:45:18.730Z,10.92
2023-05-19T04:46:18.689Z,10.94
2023-05-19T04:47:18.781Z,10.97
2023-05-19T04:48:18.643Z,10.97
2023-05-19T04:49:18.700Z,11.03
2023-05-19T04:50:18.667Z,11.04
2023-05-19T04:51:18.559Z,11.06
2023-05-19T04:52:18.794Z,11.09
2023-05-19T04:53:18.592Z,11.09
2023-05-19T04:54:19.697Z,11.11
2023-05-19T04:55:18.702Z,11.11
2023-05-19T04:56:18.575Z,11.14
2023-05-19T04:57:18.579Z,11.14
2023-05-19T04:58:18.505Z,11.14
2023-05-19T04:59:18.571Z,11.17
2023-05-19T05:00:18.513Z,11.21
2023-05-19T05:01:18.572Z,11.22
2023-05-19T05:02:18.521Z,11.21
2023-05-19T05:03:18.573Z,11.22
2023-05-19T05:04:18.465Z,11.24
2023-05-19T05:05:18.551Z,11.27
2023-05-19T05:06:18.422Z,11.27
2023-05-19T05:07:18.565Z,11.27
2023-05-19T05:08:18.369Z,11.32
2023-05-19T05:09:18.371Z,11.33
2023-05-19T05:10:18.393Z,11.35
2023-05-19T05:11:18.392Z,11.35
2023-05-19T05:12:18.335Z,11.36
2023-05-19T05:13:18.447Z,11.36
2023-05-19T05:14:18.326Z,11.37
2023-05-19T05:15:18.344Z,11.37
2023-05-19T05:16:18.349Z,11.40
2023-05-19T05:17:18.242Z,11.39
2023-05-19T05:18:18.354Z,11.39
2023-05-19T05:19:18.279Z,11.40
2023-05-19T05:20:18.471Z,11.40
2023-05-19T05:21:18.256Z,11.43
2023-05-19T05:22:18.204Z,11.43
2023-05-19T05:23:18.307Z,11.40
2023-05-19T05:24:18.693Z,11.42
2023-05-19T05:25:18.241Z,11.42
2023-05-19T05:26:18.200Z,11.43
2023-05-19T05:27:18.101Z,11.44
2023-05-19T05:28:18.223Z,11.42
2023-05-19T05:29:18.084Z,11.44
2023-05-19T05:30:18.219Z,11.46
2023-05-19T05:31:18.106Z,11.47
2023-05-19T05:32:18.156Z,11.47
2023-05-19T05:33:18.217Z,11.51
2023-05-19T05:34:18.158Z,11.57
2023-05-19T05:35:18.044Z,11.58
2023-05-19T05:36:18.131Z,11.64
2023-05-19T05:37:17.984Z,11.70
2023-05-19T05:38:18.162Z,11.79
2023-05-19T05:39:17.965Z,11.82
2023-05-19T05:40:18.097Z,11.90
2023-05-19T05:41:17.920Z,11.95
2023-05-19T05:42:18.003Z,12.02
2023-05-19T05:43:17.946Z,12.05
2023-05-19T05:44:18.023Z,12.09
2023-05-19T05:45:17.887Z,12.13
2023-05-19T05:46:18.076Z,12.17
2023-05-19T05:47:17.854Z,12.21
2023-05-19T05:48:18.045Z,12.23
2023-05-19T05:49:17.863Z,12.29
2023-05-19T05:50:18.074Z,12.34
2023-05-19T05:51:17.802Z,12.38
2023-05-19T05:52:17.868Z,12.39
2023-05-19T05:53:17.787Z,12.45
2023-05-19T05:54:17.910Z,12.52
2023-05-19T05:55:17.805Z,12.56
2023-05-19T05:56:17.913Z,12.59
2023-05-19T05:57:17.901Z,12.62
2023-05-19T05:58:17.747Z,12.62
2023-05-19T05:59:17.862Z,12.65
2023-05-19T06:00:17.691Z,12.64
2023-05-19T06:01:17.887Z,12.70
2023-05-19T06:02:17.764Z,12.67
2023-05-19T06:03:17.988Z,12.72
2023-05-19T06:04:17.643Z,12.72
2023-05-19T06:05:17.817Z,12.75
2023-05-19T06:06:18.232Z,12.77
2023-05-19T06:07:18.054Z,12.75
2023-05-19T06:08:17.611Z,12.75
2023-05-19T06:09:17.777Z,12.74
2023-05-19T06:10:18.038Z,12.75
2023-05-19T06:11:17.763Z,12.77
2023-05-19T06:12:17.560Z,12.75
2023-05-19T06:13:17.803Z,12.74
2023-05-19T06:14:17.554Z,12.75
2023-05-19T06:15:17.702Z,12.78
2023-05-19T06:16:17.525Z,12.82
2023-05-19T06:17:17.654Z,12.83
2023-05-19T06:18:17.668Z,12.86
2023-05-19T06:19:23.707Z,12.89
2023-05-19T06:20:17.556Z,12.90
2023-05-19T06:21:17.487Z,12.87
2023-05-19T06:22:17.523Z,12.85
2023-05-19T06:23:17.446Z,12.87
2023-05-19T06:24:17.496Z,12.90
2023-05-19T06:25:17.462Z,12.93
2023-05-19T06:26:17.412Z,12.96
2023-05-19T06:27:17.422Z,12.95
2023-05-19T06:28:17.505Z,13.01
2023-05-19T06:29:17.606Z,13.04
2023-05-19T06:30:18.083Z,13.10
2023-05-19T06:31:17.645Z,13.15
2023-05-19T06:32:17.827Z,13.20
2023-05-19T06:33:17.406Z,13.23
2023-05-19T06:34:17.427Z,13.29
2023-05-19T06:35:17.289Z,13.30
2023-05-19T06:36:17.462Z,13.36
2023-05-19T06:37:17.241Z,13.36
2023-05-19T06:38:17.386Z,13.32
2023-05-19T06:39:17.276Z,13.33
2023-05-19T06:40:17.226Z,13.33
2023-05-19T06:41:17.235Z,13.33
2023-05-19T06:42:17.320Z,13.38
2023-05-19T06:43:17.205Z,13.39
2023-05-19T06:44:17.934Z,13.42
2023-05-19T06:45:17.253Z,13.45
2023-05-19T06:46:17.200Z,13.45
2023-05-19T06:47:17.243Z,13.41
2023-05-19T06:48:17.234Z,13.39
2023-05-19T06:49:17.092Z,13.41
2023-05-19T06:50:17.177Z,13.48
2023-05-19T06:51:17.095Z,13.48
2023-05-19T06:52:17.111Z,13.41
2023-05-19T06:53:17.206Z,13.22
2023-05-19T06:54:17.099Z,13.19
2023-05-19T06:55:17.052Z,13.20
2023-05-19T06:56:17.042Z,13.26
2023-05-19T06:57:17.039Z,13.29
2023-05-19T06:58:17.100Z,13.33
2023-05-19T06:59:17.033Z,13.33
2023-05-19T07:00:18.801Z,13.25
2023-05-19T07:01:17.022Z,13.25
2023-05-19T07:02:17.215Z,13.23
2023-05-19T07:03:17.047Z,13.25
2023-05-19T07:04:16.966Z,13.26
2023-05-19T07:05:16.903Z,13.28
2023-05-19T07:06:17.102Z,13.28
2023-05-19T07:07:16.896Z,13.29
2023-05-19T07:08:16.953Z,13.26
2023-05-19T07:09:16.858Z,13.23
2023-05-19T07:10:16.995Z,13.25
2023-05-19T07:11:16.897Z,13.19
2023-05-19T07:12:16.897Z,13.14
2023-05-19T07:13:16.855Z,13.17
2023-05-19T07:14:17.011Z,13.19
2023-05-19T07:15:16.888Z,13.20
2023-05-19T07:16:17.018Z,13.20
2023-05-19T07:17:17.904Z,13.22
2023-05-19T07:18:16.985Z,13.22
2023-05-19T07:19:16.985Z,13.23
2023-05-19T07:20:16.855Z,13.19
2023-05-19T07:21:16.762Z,13.20
2023-05-19T07:22:16.875Z,13.17
2023-05-19T07:23:17.503Z,13.15
2023-05-19T07:24:16.656Z,13.04
2023-05-19T07:25:16.724Z,13.04
2023-05-19T07:26:16.882Z,13.04
2023-05-19T07:27:16.713Z,13.05
2023-05-19T07:28:16.592Z,13.10
2023-05-19T07:29:16.738Z,13.11
2023-05-19T07:30:17.197Z,13.12
2023-05-19T07:31:16.653Z,13.08
2023-05-19T07:32:16.863Z,13.11
2023-05-19T07:33:16.701Z,13.11
2023-05-19T07:34:16.569Z,13.10
2023-05-19T07:35:16.652Z,13.10
2023-05-19T07:36:16.559Z,13.07
2023-05-19T07:37:16.608Z,13.07
2023-05-19T07:38:16.504Z,13.08
2023-05-19T07:39:16.594Z,13.07
2023-05-19T07:40:16.439Z,13.05
2023-05-19T07:41:16.535Z,13.05
2023-05-19T07:42:16.497Z,13.07
2023-05-19T07:43:16.492Z,13.05
2023-05-19T07:44:16.403Z,13.04
2023-05-19T07:45:16.724Z,12.95
2023-05-19T07:46:16.668Z,12.92
2023-05-19T07:47:16.812Z,12.92
2023-05-19T07:48:16.570Z,12.87
2023-05-19T07:49:16.900Z,12.90
2023-05-19T07:50:16.439Z,12.90
2023-05-19T07:51:16.622Z,12.89
2023-05-19T07:52:16.584Z,12.89
2023-05-19T07:53:16.592Z,12.89
2023-05-19T07:54:16.360Z,12.87
2023-05-19T07:55:16.901Z,12.83
2023-05-19T07:56:16.510Z,12.79
2023-05-19T07:57:16.485Z,12.83
2023-05-19T07:58:17.222Z,12.86
2023-05-19T07:59:16.667Z,12.89
2023-05-19T08:00:16.507Z,12.92
2023-05-19T08:01:16.288Z,12.95
2023-05-19T08:02:16.155Z,12.96
2023-05-19T08:03:16.616Z,12.95
2023-05-19T08:04:16.209Z,12.97
2023-05-19T08:05:16.474Z,13.03
2023-05-19T08:06:16.103Z,13.05
2023-05-19T08:07:16.228Z,12.96
2023-05-19T08:08:16.087Z,12.93
2023-05-19T08:09:16.192Z,12.96
2023-05-19T08:10:16.046Z,13.00
2023-05-19T08:11:16.245Z,13.05
2023-05-19T08:12:16.105Z,13.11
2023-05-19T08:13:16.114Z,13.14
2023-05-19T08:14:15.997Z,13.15
2023-05-19T08:15:16.122Z,13.20
2023-05-19T08:16:16.018Z,13.20
2023-05-19T08:17:16.184Z,13.22
2023-05-19T08:18:15.992Z,13.25
2023-05-19T08:19:16.226Z,13.23
2023-05-19T08:20:15.965Z,13.20
2023-05-19T08:21:16.153Z,13.22
2023-05-19T08:22:15.926Z,13.25
2023-05-19T08:23:16.097Z,13.26
2023-05-19T08:24:16.290Z,13.26
2023-05-19T08:25:16.100Z,13.32
2023-05-19T08:26:15.867Z,13.36
2023-05-19T08:27:15.945Z,13.36
2023-05-19T08:28:15.902Z,13.38
2023-05-19T08:29:16.130Z,13.41
2023-05-19T08:30:15.980Z,13.42
2023-05-19T08:31:16.256Z,13.42
2023-05-19T08:32:15.818Z,13.45
2023-05-19T08:33:15.893Z,13.46
2023-05-19T08:34:16.155Z,13.46
2023-05-19T08:35:15.929Z,13.48
2023-05-19T08:36:15.710Z,13.52
2023-05-19T08:37:15.863Z,13.45
2023-05-19T08:38:15.708Z,13.44
2023-05-19T08:39:15.790Z,13.42
2023-05-19T08:40:15.664Z,13.42
2023-05-19T08:41:15.936Z,13.38
2023-05-19T08:42:15.632Z,13.36
2023-05-19T08:43:15.815Z,13.39
2023-05-19T08:44:17.512Z,13.39
2023-05-19T08:45:15.820Z,13.44
2023-05-19T08:46:15.642Z,13.44
2023-05-19T08:47:15.834Z,13.45
2023-05-19T08:48:15.891Z,13.48
2023-05-19T08:49:15.849Z,13.44
2023-05-19T08:50:15.633Z,13.42
2023-05-19T08:51:15.549Z,13.44
2023-05-19T08:52:15.672Z,13.44
2023-05-19T08:53:31.884Z,13.45
2023-05-19T08:54:15.543Z,13.51
2023-05-19T08:55:15.628Z,13.52
2023-05-19T08:56:15.462Z,13.59
2023-05-19T08:57:15.726Z,13.59
2023-05-19T08:58:15.431Z,13.57
2023-05-19T08:59:15.609Z,13.59
2023-05-19T09:00:15.493Z,13.57
2023-05-19T09:01:15.528Z,13.54
2023-05-19T09:02:15.413Z,13.55
2023-05-19T09:03:22.778Z,13.54
2023-05-19T09:04:15.645Z,13.46
2023-05-19T09:05:15.485Z,13.48
2023-05-19T09:06:15.384Z,13.46
2023-05-19T09:07:15.655Z,13.48
2023-05-19T09:08:15.305Z,13.49
2023-05-19T09:09:15.600Z,13.52
2023-05-19T09:10:15.282Z,13.52
2023-05-19T09:11:15.475Z,13.54
2023-05-19T09:12:15.260Z,13.55
2023-05-19T09:13:15.494Z,13.49
2023-05-19T09:14:15.252Z,13.54
2023-05-19T09:15:15.429Z,13.60
2023-05-19T09:16:15.280Z,13.59
2023-05-19T09:17:15.471Z,13.64
2023-05-19T09:18:15.224Z,13.67
2023-05-19T09:19:15.425Z,13.71
2023-05-19T09:20:15.140Z,13.75
2023-05-19T09:21:15.256Z,13.78
2023-05-19T09:22:15.187Z,13.79
2023-05-19T09:23:15.395Z,13.79
2023-05-19T09:24:15.108Z,13.82
2023-05-19T09:25:15.347Z,13.81
2023-05-19T09:26:15.089Z,13.79
2023-05-19T09:27:15.224Z,13.79
2023-05-19T09:28:15.101Z,13.79
2023-05-19T09:29:15.206Z,13.78
2023-05-19T09:30:15.035Z,13.79
2023-05-19T09:31:15.109Z,13.82
2023-05-19T09:32:15.051Z,13.82
2023-05-19T09:33:15.145Z,13.82
2023-05-19T09:34:15.002Z,13.87
2023-05-19T09:35:15.156Z,13.85
2023-05-19T09:36:14.977Z,13.85
2023-05-19T09:37:15.092Z,13.85
2023-05-19T09:38:14.915Z,13.87
2023-05-19T09:39:15.060Z,13.85
2023-05-19T09:40:15.100Z,13.87
2023-05-19T09:41:14.943Z,13.85
2023-05-19T09:42:14.975Z,13.87
2023-05-19T09:43:15.010Z,13.84
2023-05-19T09:44:15.131Z,13.81
2023-05-19T09:45:14.991Z,13.75
2023-05-19T09:46:14.992Z,13.75
2023-05-19T09:47:14.909Z,13.71
2023-05-19T09:48:14.803Z,13.73
2023-05-19T09:49:14.981Z,13.71
2023-05-19T09:50:14.803Z,13.70
2023-05-19T09:51:14.948Z,13.70
2023-05-19T09:52:14.770Z,13.67
2023-05-19T09:53:14.849Z,13.64
2023-05-19T09:54:14.877Z,13.63
2023-05-19T09:55:15.077Z,13.64
2023-05-19T09:56:14.709Z,13.62
2023-05-19T09:57:15.253Z,13.59
2023-05-19T09:58:14.688Z,13.52
2023-05-19T09:59:14.791Z,13.51
2023-05-19T10:00:14.818Z,13.51
2023-05-19T10:01:15.695Z,13.54
2023-05-19T10:02:14.812Z,13.55
2023-05-19T10:03:14.865Z,13.57
2023-05-19T10:04:14.581Z,13.59
2023-05-19T10:05:14.841Z,13.63
2023-05-19T10:06:14.768Z,13.62
2023-05-19T10:07:14.590Z,13.64
2023-05-19T10:08:14.740Z,13.64
2023-05-19T10:09:14.545Z,13.64
2023-05-19T10:10:14.564Z,13.66
2023-05-19T10:11:14.545Z,13.67
2023-05-19T10:12:14.683Z,13.71
2023-05-19T10:13:14.491Z,13.71
2023-05-19T10:14:14.610Z,13.75
2023-05-19T10:15:14.442Z,13.73
2023-05-19T10:16:14.630Z,13.71
2023-05-19T10:17:14.468Z,13.73
2023-05-19T10:18:14.692Z,13.71
2023-05-19T10:19:14.471Z,13.69
2023-05-19T10:20:14.655Z,13.69
2023-05-19T10:21:14.406Z,13.67
2023-05-19T10:22:14.557Z,13.66
2023-05-19T10:23:14.423Z,13.63
2023-05-19T10:24:14.463Z,13.59
2023-05-19T10:25:14.332Z,13.55
2023-05-19T10:26:14.491Z,13.52
2023-05-19T10:27:14.331Z,13.54
2023-05-19T10:28:14.439Z,13.45
2023-05-19T10:29:14.260Z,13.46
2023-05-19T10:30:16.364Z,13.46
2023-05-19T10:31:14.250Z,13.48
2023-05-19T10:32:14.541Z,13.48
2023-05-19T10:33:14.267Z,13.48
2023-05-19T10:34:14.378Z,13.49
2023-05-19T10:35:14.185Z,13.52
2023-05-19T10:36:14.249Z,13.54
2023-05-19T10:37:14.160Z,13.55
2023-05-19T10:38:14.275Z,13.60
2023-05-19T10:39:14.172Z,13.64
2023-05-19T10:40:14.343Z,13.67
2023-05-19T10:41:14.137Z,13.69
2023-05-19T10:42:14.301Z,13.66
2023-05-19T10:43:14.093Z,13.69
2023-05-19T10:44:14.263Z,13.73
2023-05-19T10:45:14.064Z,13.79
2023-05-19T10:46:14.150Z,13.82
2023-05-19T10:47:14.161Z,13.88
2023-05-19T10:48:14.157Z,13.89
2023-05-19T10:49:14.036Z,13.91
2023-05-19T10:50:14.201Z,13.89
2023-05-19T10:51:14.626Z,13.92
2023-05-19T10:52:14.165Z,13.91
2023-05-19T10:53:14.044Z,13.91
2023-05-19T10:54:14.491Z,13.88
2023-05-19T10:55:14.119Z,13.88
2023-05-19T10:56:13.973Z,13.88
2023-05-19T10:57:14.089Z,13.85
2023-05-19T10:58:14.105Z,13.84
2023-05-19T10:59:13.977Z,13.85
2023-05-19T11:00:14.164Z,13.84
2023-05-19T11:01:13.871Z,13.84
2023-05-19T11:02:13.996Z,13.85
2023-05-19T11:03:13.944Z,13.88
2023-05-19T11:04:14.093Z,13.89
2023-05-19T11:05:13.857Z,13.82
2023-05-19T11:06:13.895Z,13.77
2023-05-19T11:07:13.803Z,13.73
2023-05-19T11:08:13.839Z,13.78
2023-05-19T11:09:13.784Z,13.79
2023-05-19T11:10:13.972Z,13.81
2023-05-19T11:11:13.793Z,13.85
2023-05-19T11:12:13.886Z,13.84
2023-05-19T11:13:14.900Z,13.87
2023-05-19T11:14:13.801Z,13.91
2023-05-19T11:15:13.730Z,13.97
2023-05-19T11:16:13.940Z,13.97
2023-05-19T11:17:13.712Z,13.97
2023-05-19T11:18:13.798Z,14.00
2023-05-19T11:19:13.718Z,13.97
2023-05-19T11:20:13.723Z,13.99
2023-05-19T11:21:13.774Z,14.02
2023-05-19T11:22:13.688Z,14.02
2023-05-19T11:23:13.710Z,14.00
2023-05-19T11:24:13.752Z,13.99
2023-05-19T11:25:13.591Z,14.00
2023-05-19T11:26:13.728Z,14.02
2023-05-19T11:27:13.597Z,14.00
2023-05-19T11:28:13.717Z,13.97
2023-05-19T11:29:13.524Z,13.96
2023-05-19T11:30:13.755Z,13.92
2023-05-19T11:31:13.503Z,14.00
2023-05-19T11:32:13.815Z,14.00
2023-05-19T11:33:13.715Z,14.02
2023-05-19T11:34:13.531Z,14.06
2023-05-19T11:35:13.511Z,14.12
2023-05-19T11:36:13.740Z,14.12
2023-05-19T11:37:13.399Z,14.10
2023-05-19T11:38:13.593Z,14.04
2023-05-19T11:39:13.451Z,14.07
2023-05-19T11:40:13.548Z,14.07
2023-05-19T11:41:13.359Z,14.07
2023-05-19T11:42:13.506Z,14.07
2023-05-19T11:43:13.365Z,14.09
2023-05-19T11:44:13.446Z,14.09
2023-05-19T11:45:13.416Z,14.09
2023-05-19T11:46:13.549Z,14.09
2023-05-19T11:47:13.550Z,14.07
2023-05-19T11:48:13.347Z,14.07
2023-05-19T11:49:13.431Z,14.07
2023-05-19T11:50:13.310Z,14.10
2023-05-19T11:51:13.321Z,14.10
2023-05-19T11:52:13.274Z,14.07
2023-05-19T11:53:13.461Z,14.04
2023-05-19T11:54:13.208Z,14.03
2023-05-19T11:55:13.355Z,14.00
2023-05-19T11:56:13.189Z,13.96
2023-05-19T11:57:13.257Z,13.95
2023-05-19T11:58:13.182Z,13.88
2023-05-19T11:59:13.228Z,13.85
2023-05-19T12:00:13.153Z,13.81
2023-05-19T12:01:13.194Z,13.82
2023-05-19T12:02:13.178Z,13.85
2023-05-19T12:03:13.439Z,13.84
2023-05-19T12:04:13.143Z,13.87
2023-05-19T12:05:13.193Z,13.88
2023-05-19T12:06:13.179Z,13.91
2023-05-19T12:07:13.147Z,13.92
2023-05-19T12:08:13.093Z,13.88
2023-05-19T12:09:13.139Z,13.89
2023-05-19T12:10:13.020Z,13.91
2023-05-19T12:11:13.205Z,13.91
2023-05-19T12:12:13.020Z,13.95
2023-05-19T12:13:13.168Z,13.96
2023-05-19T12:14:12.977Z,13.97
2023-05-19T12:15:13.009Z,14.02
2023-05-19T12:16:13.002Z,14.07
2023-05-19T12:17:12.984Z,14.06
2023-05-19T12:18:12.990Z,14.10
2023-05-19T12:19:13.054Z,14.10
2023-05-19T12:20:12.944Z,14.10
2023-05-19T12:21:13.064Z,14.10
2023-05-19T12:22:12.903Z,14.12
2023-05-19T12:23:13.070Z,14.15
2023-05-19T12:24:12.914Z,14.15
2023-05-19T12:25:13.051Z,14.15
2023-05-19T12:26:12.824Z,14.15
2023-05-19T12:27:12.865Z,14.18
2023-05-19T12:28:12.848Z,14.17
2023-05-19T12:29:12.882Z,14.14
2023-05-19T12:30:12.762Z,14.12
2023-05-19T12:31:12.938Z,14.09
2023-05-19T12:32:12.986Z,14.09
2023-05-19T12:33:12.732Z,14.07
2023-05-19T12:34:12.875Z,14.06
2023-05-19T12:35:12.676Z,14.03
2023-05-19T12:36:12.980Z,14.00
2023-05-19T12:37:12.791Z,13.97
2023-05-19T12:38:12.712Z,14.00
2023-05-19T12:39:12.734Z,13.97
2023-05-19T12:40:12.644Z,13.97
2023-05-19T12:41:12.776Z,14.00
2023-05-19T12:42:12.668Z,14.02
2023-05-19T12:43:12.718Z,14.02
2023-05-19T12:44:12.595Z,14.02
2023-05-19T12:45:12.708Z,13.99
2023-05-19T12:46:12.715Z,14.03
2023-05-19T12:47:12.715Z,14.06
2023-05-19T12:48:12.807Z,14.10
2023-05-19T12:49:12.659Z,14.14
2023-05-19T12:50:12.877Z,14.15
2023-05-19T12:51:12.607Z,14.17
2023-05-19T12:52:13.188Z,14.25